This is the latest recevied weather packets stored in our database for station/object KD5BIG-13. If no packets are shown the sender has not sent any weather packets the latest 1 day(s).
| Time | Temp. | Humidity | Pressure | Rain* | Wind** | Luminosity | Snow |
|---|---|---|---|---|---|---|---|
| 1778054153 | 22.78° C | 87% | 1014.4 hPa | 0 mm | 1.34 m/s, 179° | 0 W/m² | - |
| 1778053849 | 22.78° C | 87% | 1014.8 hPa | 0 mm | 0.45 m/s, 209° | 0 W/m² | - |
| 1778053547 | 22.78° C | 88% | 1014.7 hPa | 0 mm | 0.45 m/s, 181° | 0 W/m² | - |
| 1778053244 | 22.22° C | 88% | 1014.8 hPa | 0 mm | 0.89 m/s, 181° | 0 W/m² | - |
| 1778052941 | 22.22° C | 88% | 1014.5 hPa | 0 mm | 2.24 m/s, 209° | 0 W/m² | - |
| 1778052638 | 22.22° C | 89% | 1014.6 hPa | 0 mm | 0 m/s | 0 W/m² | - |
| 1778052336 | 22.22° C | 89% | 1014.4 hPa | 0 mm | 0.45 m/s, 169° | 0 W/m² | - |
| 1778052033 | 22.22° C | 89% | 1014.3 hPa | 0 mm | 0.45 m/s, 180° | 0 W/m² | - |
| 1778051731 | 22.22° C | 89% | 1014.5 hPa | 0 mm | 0.89 m/s, 162° | 0 W/m² | - |
| 1778051428 | 22.78° C | 89% | 1014.6 hPa | 0 mm | 0.45 m/s, 188° | 0 W/m² | - |
| 1778051125 | 22.78° C | 89% | 1014.9 hPa | 0 mm | 1.34 m/s, 151° | 0 W/m² | - |
| 1778050822 | 22.78° C | 89% | 1014.8 hPa | 0 mm | 0 m/s | 0 W/m² | - |
| 1778050520 | 22.78° C | 89% | 1014.6 hPa | 0 mm | 1.79 m/s, 184° | 0 W/m² | - |
| 1778050216 | 22.78° C | 89% | 1014.7 hPa | 0 mm | 0 m/s | 0 W/m² | - |
| 1778049913 | 22.78° C | 89% | 1014.8 hPa | 0 mm | 2.24 m/s, 207° | 0 W/m² | - |
| 1778049609 | 22.78° C | 89% | 1014.8 hPa | 0 mm | 0.89 m/s, 180° | 0 W/m² | - |
| 1778049307 | 22.78° C | 89% | 1015.1 hPa | 0 mm | 0.89 m/s, 155° | 0 W/m² | - |
| 1778049004 | 22.78° C | 89% | 1015.2 hPa | 0 mm | 3.13 m/s, 192° | 0 W/m² | - |
| 1778048703 | 22.78° C | 89% | 1015.2 hPa | 0 mm | 0.89 m/s, 151° | 0 W/m² | - |
| 1778048399 | 22.78° C | 89% | 1015.3 hPa | 0 mm | 1.79 m/s, 173° | 0 W/m² | - |
| 1778048095 | 22.78° C | 89% | 1014.9 hPa | 0 mm | 1.79 m/s, 190° | 0 W/m² | - |
| 1778047793 | 22.78° C | 89% | 1015 hPa | 0 mm | 1.79 m/s, 211° | 0 W/m² | - |
| 1778047491 | 22.78° C | 89% | 1015 hPa | 0 mm | 1.79 m/s, 192° | 0 W/m² | - |
| 1778047188 | 22.78° C | 89% | 1015 hPa | 0 mm | 0.89 m/s, 133° | 0 W/m² | - |
| 1778046885 | 22.78° C | 89% | 1015 hPa | 0 mm | 1.79 m/s, 162° | 0 W/m² | - |
* Rain latest hour (hover to see other rain measurements)
** Current wind speed in m/s (hover to see current wind gust speed)